Time;durP1;ratioP1;P1;durP2;ratioP2;P2;SDS_P1;SDS_P2;PMS_P1;PMS_P2;Temp;Humidity;BMP_temperature;BMP_pressure;BME280_temperature;BME280_humidity;BME280_pressure;Samples;Min_cycle;Max_cycle;Signal;HPM_P1;HPM_P2
2021/01/30 00:00:07;;;;;;;6.87;3.23;;;;;;;10.26;74.53;100081.31;5061357;28;19916;-67
2021/01/30 00:02:33;;;;;;;8.23;2.70;;;;;;;10.22;74.29;100096.13;5061899;28;20036;-67
2021/01/30 00:04:59;;;;;;;10.10;4.03;;;;;;;10.31;73.33;100100.19;5060418;28;20069;-67
2021/01/30 00:07:26;;;;;;;8.90;3.45;;;;;;;10.33;62.07;100095.47;5061105;28;20032;-57
2021/01/30 00:09:51;;;;;;;5.60;2.95;;;;;;;10.32;60.34;100101.84;5060853;28;20435;-65
2021/01/30 00:12:17;;;;;;;4.70;3.03;;;;;;;9.97;73.09;100092.28;5059188;28;20032;-64
2021/01/30 00:14:43;;;;;;;6.18;2.55;;;;;;;10.36;64.73;100086.22;5060911;28;20393;-67
2021/01/30 00:17:09;;;;;;;8.07;3.23;;;;;;;9.78;78.43;100083.31;5059928;28;20060;-65
2021/01/30 00:19:36;;;;;;;6.90;3.65;;;;;;;9.68;74.19;100099.75;5059088;28;20499;-67
2021/01/30 00:22:05;;;;;;;8.82;3.97;;;;;;;9.77;76.27;100100.34;5061207;28;20032;-66
2021/01/30 00:24:31;;;;;;;8.70;4.00;;;;;;;9.48;68.63;100091.78;5059256;28;20039;-66
2021/01/30 00:26:59;;;;;;;7.27;3.23;;;;;;;9.66;58.17;100087.63;5059711;28;20047;-65
2021/01/30 00:29:28;;;;;;;5.05;3.17;;;;;;;9.53;55.39;100089.31;5058010;28;20033;-66
2021/01/30 00:31:53;;;;;;;5.07;2.50;;;;;;;9.58;55.26;100094.84;5060774;28;20431;-68
2021/01/30 00:34:22;;;;;;;9.13;3.20;;;;;;;9.61;54.34;100102.44;5058893;28;20045;-65
2021/01/30 00:37:01;;;;;;;7.32;2.70;;;;;;;9.29;70.07;100090.75;5059955;28;20025;-65
2021/01/30 00:39:27;;;;;;;5.85;3.20;;;;;;;9.29;73.63;100099.56;5059190;28;20080;-62
2021/01/30 00:41:52;;;;;;;4.83;2.80;;;;;;;9.34;78.89;100096.28;5059832;28;20033;-66
2021/01/30 00:44:18;;;;;;;6.75;3.67;;;;;;;8.97;70.57;100091.31;5061335;28;20389;-65
2021/01/30 00:46:50;;;;;;;6.67;3.53;;;;;;;9.09;66.62;100099.53;5058751;28;20045;-68
2021/01/30 00:49:17;;;;;;;6.70;3.03;;;;;;;9.01;64.95;100092.59;5059789;28;20409;-66
2021/01/30 00:51:43;;;;;;;;;;;;;;;9.03;80.67;100087.03;5061095;28;20041;-65
2021/01/30 00:54:09;;;;;;;5.80;3.37;;;;;;;8.94;67.80;100081.06;5058599;28;20344;-66
2021/01/30 00:56:35;;;;;;;6.38;3.92;;;;;;;9.09;62.01;100096.06;5059057;28;20039;-66
2021/01/30 00:59:00;;;;;;;5.90;3.63;;;;;;;8.91;66.05;100088.66;5060878;28;20037;-65
2021/01/30 01:01:26;;;;;;;6.20;3.63;;;;;;;9.20;74.29;100100.78;5058200;28;20033;-66
2021/01/30 01:03:52;;;;;;;5.95;3.67;;;;;;;9.26;61.89;100099.16;5059991;28;20129;-66
2021/01/30 01:06:18;;;;;;;5.30;3.78;;;;;;;9.31;57.49;100097.53;5059691;28;20041;-66
2021/01/30 01:08:43;;;;;;;7.43;4.80;;;;;;;9.47;54.17;100109.63;5058018;28;20060;-66
2021/01/30 01:11:10;;;;;;;6.30;4.00;;;;;;;9.52;54.35;100106.34;5051362;28;20033;-66
2021/01/30 01:13:36;;;;;;;7.47;4.30;;;;;;;9.44;53.52;100106.53;5050298;28;20044;-66
2021/01/30 01:16:02;;;;;;;9.57;4.05;;;;;;;9.49;52.07;100112.09;5051020;28;20033;-67
2021/01/30 01:18:28;;;;;;;10.75;5.35;;;;;;;9.23;53.85;100119.06;5051748;28;20086;-68
2021/01/30 01:20:54;;;;;;;8.02;4.85;;;;;;;9.40;52.23;100122.16;5053921;28;20045;-68
2021/01/30 01:23:19;;;;;;;7.93;5.40;;;;;;;9.22;55.24;100127.28;5055165;28;20389;-67
2021/01/30 01:25:45;;;;;;;9.95;6.28;;;;;;;9.28;52.41;100134.47;5054332;28;20116;-67
2021/01/30 01:28:11;;;;;;;8.07;5.83;;;;;;;9.14;53.42;100134.47;5055102;28;20041;-66
2021/01/30 01:30:36;;;;;;;9.10;6.00;;;;;;;8.67;56.69;100137.00;5054392;28;20147;-67
2021/01/30 01:33:02;;;;;;;11.20;7.63;;;;;;;8.72;55.76;100137.22;5054639;28;20041;-68
2021/01/30 01:35:31;;;;;;;11.80;7.60;;;;;;;8.47;55.37;100140.38;5054838;28;20057;-68
2021/01/30 01:37:58;;;;;;;14.18;7.68;;;;;;;8.86;53.99;100131.94;5054137;28;20072;-66
2021/01/30 01:40:34;;;;;;;11.15;7.47;;;;;;;9.13;53.42;100134.66;5054424;28;20041;-67
2021/01/30 01:43:03;;;;;;;11.57;7.95;;;;;;;8.97;56.58;100144.66;5054856;28;20064;-66
2021/01/30 01:45:30;;;;;;;12.25;8.27;;;;;;;8.81;53.89;100135.19;5054352;28;20104;-68
2021/01/30 01:48:00;;;;;;;13.52;9.25;;;;;;;8.83;53.81;100137.66;5054388;28;20036;-67
2021/01/30 01:50:26;;;;;;;14.38;8.88;;;;;;;8.67;54.53;100144.19;5054535;28;20037;-67
2021/01/30 01:52:57;;;;;;;14.73;9.07;;;;;;;8.80;53.69;100149.56;5052568;28;20043;-67
2021/01/30 01:55:22;;;;;;;15.50;8.68;;;;;;;8.82;54.49;100146.69;5054555;28;20083;-68
2021/01/30 01:57:52;;;;;;;15.55;9.65;;;;;;;8.93;53.96;100148.75;5052306;28;20037;-69
2021/01/30 02:00:23;;;;;;;14.35;9.18;;;;;;;8.98;53.33;100159.63;5054276;28;20479;-69
2021/01/30 02:02:51;;;;;;;12.88;8.77;;;;;;;9.18;52.70;100153.53;5052703;28;20064;-68
2021/01/30 02:05:24;;;;;;;13.98;8.57;;;;;;;9.04;53.33;100150.00;5055283;28;20087;-67
2021/01/30 02:07:51;;;;;;;11.70;7.80;;;;;;;8.91;52.70;100160.66;5055772;28;20128;-67
2021/01/30 02:10:20;;;;;;;;;;;;;;;8.99;52.83;100163.16;5057798;28;20037;-69
2021/01/30 02:12:47;;;;;;;13.00;8.00;;;;;;;9.08;55.07;100155.78;5053586;28;19912;-67
2021/01/30 02:15:14;;;;;;;14.52;8.88;;;;;;;8.78;53.17;100158.78;5054138;28;20037;-68
2021/01/30 02:17:45;;;;;;;13.05;8.52;;;;;;;8.92;54.13;100155.13;5053423;28;20080;-68
2021/01/30 02:20:29;;;;;;;14.18;8.93;;;;;;;9.11;50.99;100166.03;5053023;28;20033;-68
2021/01/30 02:23:18;;;;;;;13.70;8.40;;;;;;;8.81;50.75;100163.72;5053091;28;20488;-69
2021/01/30 02:26:15;;;;;;;14.68;8.45;;;;;;;8.91;52.35;100192.66;5051908;28;20384;-68
2021/01/30 02:28:59;;;;;;;12.40;8.45;;;;;;;8.73;52.34;100194.84;5052975;28;20041;-66
2021/01/30 02:31:41;;;;;;;14.60;8.40;;;;;;;8.73;52.04;100186.03;5052234;28;20063;-68
2021/01/30 02:34:09;;;;;;;14.40;9.50;;;;;;;8.61;51.75;100173.25;5053711;28;20044;-68
2021/01/30 02:36:56;;;;;;;15.00;9.70;;;;;;;8.39;53.41;100180.53;5053378;28;20037;-59
2021/01/30 02:39:34;;;;;;;13.00;8.82;;;;;;;8.63;53.53;100183.75;5053806;28;20049;-69
2021/01/30 02:42:12;;;;;;;15.25;9.60;;;;;;;8.00;54.00;100174.78;5051360;28;20044;-69
2021/01/30 02:44:46;;;;;;;15.70;10.32;;;;;;;7.78;55.29;100183.81;5052816;28;20048;-67
2021/01/30 02:47:14;;;;;;;15.45;9.63;;;;;;;7.66;55.60;100179.00;5052343;28;20041;-69
2021/01/30 02:49:45;;;;;;;14.55;9.05;;;;;;;7.55;56.30;100171.56;5051426;28;20048;-67
2021/01/30 02:52:21;;;;;;;14.93;8.98;;;;;;;8.46;53.04;100178.72;5052225;28;20044;-67
2021/01/30 02:54:48;;;;;;;15.40;9.23;;;;;;;8.58;52.92;100178.19;5056540;28;20037;-70
2021/01/30 02:57:17;;;;;;;13.17;8.43;;;;;;;8.94;51.84;100171.75;5055670;28;20481;-67
2021/01/30 02:59:48;;;;;;;13.77;8.93;;;;;;;8.78;50.80;100174.78;5052955;28;20301;-67
2021/01/30 03:02:16;;;;;;;13.60;8.52;;;;;;;8.25;52.98;100173.47;5053257;28;20055;-69
2021/01/30 03:04:43;;;;;;;15.55;8.43;;;;;;;8.23;52.85;100181.69;5065605;28;20090;-67
2021/01/30 03:07:25;;;;;;;12.38;8.10;;;;;;;7.72;56.04;100180.09;5073195;28;20037;-67
2021/01/30 03:10:00;;;;;;;12.73;8.52;;;;;;;7.49;55.51;100199.75;5054579;28;20374;-68
2021/01/30 03:12:35;;;;;;;13.43;9.30;;;;;;;7.52;55.91;100193.25;5073205;28;20360;-69
2021/01/30 03:15:12;;;;;;;13.43;8.55;;;;;;;7.38;58.89;100185.13;5072285;28;20090;-68
2021/01/30 03:17:38;;;;;;;13.40;8.70;;;;;;;7.65;55.88;100188.00;5071662;28;20402;-68
2021/01/30 03:20:04;;;;;;;12.88;8.63;;;;;;;7.65;55.68;100193.34;5072460;28;20102;-69
2021/01/30 03:22:32;;;;;;;14.45;9.23;;;;;;;7.63;55.53;100202.53;5055099;28;20146;-69
2021/01/30 03:24:59;;;;;;;14.20;9.18;;;;;;;7.29;55.76;100200.38;5071975;28;20021;-69
2021/01/30 03:27:32;;;;;;;13.85;8.65;;;;;;;7.51;55.91;100195.06;5072374;28;20044;-68
2021/01/30 03:29:58;;;;;;;13.13;8.60;;;;;;;7.72;54.72;100206.72;5072113;28;20056;-69
2021/01/30 03:32:27;;;;;;;16.52;8.95;;;;;;;7.29;56.19;100208.38;5072606;28;20032;-68
2021/01/30 03:34:54;;;;;;;12.93;8.30;;;;;;;7.24;57.08;100210.78;5067262;28;20037;-68
2021/01/30 03:37:20;;;;;;;14.68;9.00;;;;;;;7.18;56.72;100200.91;5052027;28;20060;-67
2021/01/30 03:39:46;;;;;;;13.60;9.02;;;;;;;7.26;56.39;100207.91;5051902;28;20051;-69
2021/01/30 03:42:12;;;;;;;12.13;7.93;;;;;;;7.11;57.39;100205.28;5051642;28;20465;-68
2021/01/30 03:44:38;;;;;;;12.30;8.52;;;;;;;7.06;58.42;100197.91;5051101;28;20060;-68
2021/01/30 03:47:04;;;;;;;13.73;9.02;;;;;;;7.11;57.71;100202.63;5051573;28;20072;-69
2021/01/30 03:49:29;;;;;;;16.42;8.90;;;;;;;7.26;56.10;100198.09;5051117;28;20069;-69
2021/01/30 03:51:55;;;;;;;12.43;7.72;;;;;;;6.82;57.24;100191.06;5051412;28;20045;-67
2021/01/30 03:54:20;;;;;;;10.83;7.07;;;;;;;7.16;56.70;100197.59;5052030;28;20552;-69
2021/01/30 03:56:46;;;;;;;13.10;7.73;;;;;;;7.26;56.48;100198.09;5033545;28;20417;-68
2021/01/30 03:59:15;;;;;;;9.13;6.63;;;;;;;7.29;57.42;100199.56;5050795;28;20134;-67
2021/01/30 04:01:41;;;;;;;9.60;6.72;;;;;;;7.28;56.32;100209.38;5052151;28;20044;-69
2021/01/30 04:04:06;;;;;;;10.10;6.57;;;;;;;7.01;57.64;100189.66;5051126;28;20041;-69
2021/01/30 04:06:32;;;;;;;8.20;5.90;;;;;;;7.38;59.15;100203.75;5051821;28;20454;-70
2021/01/30 04:08:57;;;;;;;8.40;5.87;;;;;;;7.60;54.75;100193.91;5051178;28;20037;-68
2021/01/30 04:11:25;;;;;;;8.00;5.50;;;;;;;7.71;54.27;100184.56;5052332;28;20040;-70
2021/01/30 04:13:50;;;;;;;9.80;5.65;;;;;;;7.82;53.32;100196.53;5051121;28;20033;-68
2021/01/30 04:16:16;;;;;;;8.48;5.63;;;;;;;7.98;52.65;100183.97;5051996;28;20047;-69
2021/01/30 04:18:41;;;;;;;9.20;6.00;;;;;;;7.86;52.81;100175.69;5050591;28;20480;-69
2021/01/30 04:21:07;;;;;;;8.13;5.53;;;;;;;7.70;54.81;100187.44;5049967;28;20039;-70
2021/01/30 04:23:32;;;;;;;8.90;5.73;;;;;;;7.88;52.78;100184.31;5050485;28;20041;-69
2021/01/30 04:25:58;;;;;;;7.70;5.57;;;;;;;7.53;55.22;100185.03;5049674;28;20068;-68
2021/01/30 04:28:23;;;;;;;9.37;6.30;;;;;;;7.47;55.16;100180.50;5050740;28;20220;-69
2021/01/30 04:30:49;;;;;;;9.13;6.13;;;;;;;7.63;53.88;100179.41;5051145;28;20396;-68
2021/01/30 04:33:14;;;;;;;10.93;6.10;;;;;;;7.96;53.02;100181.50;5051407;28;20377;-69
2021/01/30 04:35:40;;;;;;;8.27;5.40;;;;;;;7.97;52.91;100179.66;5051692;28;20116;-68
2021/01/30 04:38:06;;;;;;;6.43;4.37;;;;;;;7.95;54.29;100190.47;5049213;28;20952;-68
2021/01/30 04:40:39;;;;;;;8.38;4.90;;;;;;;8.24;52.20;100195.81;5051677;28;20037;-69
2021/01/30 04:43:04;;;;;;;11.35;5.95;;;;;;;8.87;52.74;100192.25;5051206;28;20061;-70
2021/01/30 04:46:01;;;;;;;9.13;5.50;;;;;;;9.14;50.15;100181.63;5051551;28;20131;-70
2021/01/30 04:49:00;;;;;;;7.50;5.18;;;;;;;9.20;51.06;100180.03;5051853;28;20068;-70
2021/01/30 04:51:41;;;;;;;8.43;5.05;;;;;;;8.72;52.33;100182.53;5061975;28;20524;-69
2021/01/30 04:54:40;;;;;;;9.75;5.47;;;;;;;8.16;53.69;100189.63;5074239;28;20037;-69
2021/01/30 04:57:14;;;;;;;10.38;6.07;;;;;;;8.29;50.53;100191.53;5074574;28;20119;-68
2021/01/30 05:00:01;;;;;;;7.85;5.28;;;;;;;8.66;50.56;100190.53;5074083;28;20032;-69
2021/01/30 05:02:32;;;;;;;8.00;5.60;;;;;;;9.61;48.57;100177.19;5075252;28;20055;-69
2021/01/30 05:05:01;;;;;;;7.05;5.38;;;;;;;9.43;48.92;100174.28;5074689;28;20089;-68
2021/01/30 05:07:35;;;;;;;8.80;5.43;;;;;;;9.66;48.24;100181.06;5075302;28;20116;-69
2021/01/30 05:10:21;;;;;;;10.77;6.38;;;;;;;9.52;48.93;100167.75;5073435;28;20067;-69
2021/01/30 05:12:52;;;;;;;10.27;6.30;;;;;;;9.58;48.61;100174.13;5057538;28;20048;-69
2021/01/30 05:15:18;;;;;;;9.30;6.25;;;;;;;8.20;50.42;100175.91;5054911;28;20033;-68
2021/01/30 05:18:04;;;;;;;9.20;5.90;;;;;;;8.58;49.90;100170.19;5054981;28;20479;-69
2021/01/30 05:20:33;;;;;;;9.25;6.40;;;;;;;8.79;49.28;100176.44;5053909;28;20063;-69
2021/01/30 05:23:03;;;;;;;12.02;7.00;;;;;;;9.69;47.66;100160.13;5054353;28;20121;-67
2021/01/30 05:25:28;;;;;;;9.70;6.32;;;;;;;9.31;48.44;100164.22;5055183;28;20040;-69
2021/01/30 05:28:03;;;;;;;11.45;7.00;;;;;;;8.25;49.99;100170.81;5052938;28;20048;-68
2021/01/30 05:30:53;;;;;;;9.05;5.97;;;;;;;7.66;53.71;100175.53;5055123;28;20044;-68
2021/01/30 05:33:24;;;;;;;8.93;5.97;;;;;;;7.91;52.14;100175.13;5054808;28;20135;-69
2021/01/30 05:36:12;;;;;;;11.27;5.68;;;;;;;7.85;53.37;100158.91;5054923;28;20036;-67
2021/01/30 05:38:48;;;;;;;9.80;5.95;;;;;;;9.04;48.73;100152.69;5054416;28;20056;-69
2021/01/30 05:41:42;;;;;;;10.48;6.00;;;;;;;9.33;47.30;100148.00;5053814;28;20094;-69
2021/01/30 05:44:14;;;;;;;10.13;5.93;;;;;;;9.28;46.97;100143.28;5054218;28;20041;-69
2021/01/30 05:46:40;;;;;;;8.60;5.45;;;;;;;9.15;47.34;100154.78;5054474;28;20037;-68
2021/01/30 05:49:13;;;;;;;7.93;4.90;;;;;;;9.06;48.52;100161.31;5054165;28;20037;-68
2021/01/30 05:52:14;;;;;;;9.40;6.05;;;;;;;8.61;47.80;100159.94;5055039;28;20048;-69
2021/01/30 05:54:39;;;;;;;9.20;5.28;;;;;;;9.00;47.64;100152.28;5043732;28;20056;-69
2021/01/30 05:57:05;;;;;;;10.53;5.37;;;;;;;7.84;50.43;100165.25;5054203;28;20029;-68
2021/01/30 05:59:33;;;;;;;8.37;5.37;;;;;;;7.71;50.94;100163.28;5054465;28;20124;-69
2021/01/30 06:02:11;;;;;;;9.00;5.25;;;;;;;8.91;50.42;100140.16;5054767;28;20060;-68
2021/01/30 06:04:36;;;;;;;7.68;5.32;;;;;;;7.72;51.14;100161.47;5054545;28;20041;-70
2021/01/30 06:07:03;;;;;;;8.37;4.97;;;;;;;7.59;52.12;100147.03;5054304;28;20107;-69
2021/01/30 06:09:44;;;;;;;8.47;4.70;;;;;;;8.17;50.25;100155.78;5055149;28;20433;-69
2021/01/30 06:12:30;;;;;;;10.60;5.75;;;;;;;7.55;51.59;100164.38;5053811;28;20393;-68
2021/01/30 06:15:21;;;;;;;9.00;5.20;;;;;;;7.51;51.82;100157.81;5053296;28;20029;-68
2021/01/30 06:17:48;;;;;;;8.60;4.75;;;;;;;7.41;52.88;100157.31;5054420;28;20102;-70
2021/01/30 06:20:24;;;;;;;8.73;5.28;;;;;;;7.31;52.62;100158.47;5053884;28;20132;-69
2021/01/30 06:23:02;;;;;;;7.97;5.15;;;;;;;7.54;52.38;100164.59;5054826;28;20040;-69
2021/01/30 06:25:33;;;;;;;8.23;5.00;;;;;;;7.75;51.79;100164.56;5054151;28;20037;-71
2021/01/30 06:28:14;;;;;;;8.10;4.85;;;;;;;7.39;53.01;100172.66;5053305;28;20033;-68
2021/01/30 06:30:43;;;;;;;8.02;4.63;;;;;;;7.46;53.27;100174.34;5054221;28;20032;-68
2021/01/30 06:33:24;;;;;;;8.65;5.05;;;;;;;7.25;54.41;100179.66;5051879;28;20099;-67
2021/01/30 06:35:54;;;;;;;8.05;5.20;;;;;;;6.91;55.61;100167.88;5052498;28;20393;-69
2021/01/30 06:38:37;;;;;;;8.00;4.68;;;;;;;6.69;57.34;100171.31;5052887;28;20053;-69
2021/01/30 06:41:05;;;;;;;8.45;4.88;;;;;;;6.83;56.33;100174.97;5053262;28;20052;-68
2021/01/30 06:43:34;;;;;;;7.85;4.60;;;;;;;6.54;58.22;100173.97;5052525;28;20040;-69
2021/01/30 06:46:05;;;;;;;7.78;4.82;;;;;;;6.66;58.80;100174.31;5053018;28;20036;-67
2021/01/30 06:48:46;;;;;;;9.65;5.32;;;;;;;6.66;60.36;100166.34;5052365;28;20140;-69
2021/01/30 06:51:28;;;;;;;8.57;5.07;;;;;;;6.81;60.02;100181.47;5052787;28;20473;-69
2021/01/30 06:53:56;;;;;;;10.18;5.43;;;;;;;6.80;59.98;100180.63;5053607;28;20072;-69
2021/01/30 06:56:23;;;;;;;8.82;6.07;;;;;;;6.92;58.26;100183.66;5051319;28;20050;-68
2021/01/30 06:58:51;;;;;;;8.63;5.40;;;;;;;6.98;59.15;100180.22;5053236;28;20048;-69
2021/01/30 07:01:22;;;;;;;9.48;5.40;;;;;;;7.30;57.03;100191.38;5052827;28;20079;-69
2021/01/30 07:04:03;;;;;;;9.93;5.65;;;;;;;7.17;56.71;100183.28;5053350;28;20045;-68
2021/01/30 07:06:55;;;;;;;8.25;4.75;;;;;;;7.13;56.52;100182.84;5053377;28;20037;-69
2021/01/30 07:09:20;;;;;;;8.07;4.22;;;;;;;7.53;58.70;100185.03;5051363;28;20041;-68
2021/01/30 07:11:46;;;;;;;6.93;4.53;;;;;;;7.52;54.79;100174.63;5053145;28;20025;-69
2021/01/30 07:14:49;;;;;;;10.30;5.40;;;;;;;7.70;56.82;100179.47;5051130;28;20143;-69
2021/01/30 07:17:49;;;;;;;7.75;4.75;;;;;;;7.73;53.99;100182.56;5051216;28;20489;-70
2021/01/30 07:20:32;;;;;;;8.30;5.20;;;;;;;7.96;53.53;100180.66;5052010;28;20052;-70
2021/01/30 07:23:07;;;;;;;8.05;5.13;;;;;;;8.09;54.46;100182.59;5051793;28;20051;-70
2021/01/30 07:25:51;;;;;;;10.20;5.38;;;;;;;8.03;54.24;100178.88;5052675;28;20037;-69
2021/01/30 07:28:22;;;;;;;8.02;4.80;;;;;;;7.88;53.72;100176.31;5052176;28;20566;-69
2021/01/30 07:30:57;;;;;;;8.18;4.95;;;;;;;7.89;55.06;100176.13;5052678;28;20037;-70
2021/01/30 07:33:33;;;;;;;8.10;5.03;;;;;;;8.02;54.38;100177.22;5050850;28;20041;-69
2021/01/30 07:36:15;;;;;;;9.10;5.53;;;;;;;7.78;54.78;100179.31;5052536;28;20473;-70
2021/01/30 07:38:56;;;;;;;9.23;5.55;;;;;;;7.79;52.61;100164.97;5052628;28;20045;-69
2021/01/30 07:41:41;;;;;;;7.88;5.10;;;;;;;7.88;53.45;100169.16;5051776;28;20058;-69
2021/01/30 07:44:14;;;;;;;8.32;5.03;;;;;;;7.91;55.50;100173.25;5033742;28;20041;-69
2021/01/30 07:46:46;;;;;;;9.27;5.53;;;;;;;8.14;52.69;100162.38;5052368;28;20072;-70
2021/01/30 07:49:22;;;;;;;8.93;5.13;;;;;;;7.98;53.05;100170.66;5051558;28;20041;-70
2021/01/30 07:52:00;;;;;;;9.45;5.88;;;;;;;7.92;53.67;100166.09;5052602;28;20048;-69
2021/01/30 07:54:26;;;;;;;9.02;5.60;;;;;;;7.51;57.63;100165.00;5051710;28;20115;-69
2021/01/30 07:57:30;;;;;;;9.27;5.53;;;;;;;7.59;57.02;100175.47;5052468;28;20469;-70
2021/01/30 08:00:02;;;;;;;9.93;5.70;;;;;;;7.46;55.45;100182.31;5028814;28;20064;-68
2021/01/30 08:03:10;;;;;;;6.75;4.32;;;;;;;7.56;55.68;100166.03;5052114;28;20055;-71
2021/01/30 08:05:44;;;;;;;8.27;4.40;;;;;;;7.26;57.72;100168.84;5051007;28;20075;-69
2021/01/30 08:08:25;;;;;;;10.55;4.55;;;;;;;7.34;57.88;100170.56;5051653;28;20274;-70
2021/01/30 08:11:06;;;;;;;7.22;4.82;;;;;;;7.03;56.48;100175.16;5051064;28;20106;-70
2021/01/30 08:13:53;;;;;;;11.65;5.13;;;;;;;6.95;60.08;100154.03;5034396;28;20102;-71
2021/01/30 08:16:23;;;;;;;12.80;5.70;;;;;;;7.30;56.75;100167.44;5051734;28;20129;-69
2021/01/30 08:18:50;;;;;;;8.70;4.70;;;;;;;7.37;58.59;100164.84;5051937;28;20040;-68
2021/01/30 08:21:38;;;;;;;6.97;4.32;;;;;;;7.51;56.88;100159.66;5051463;28;20183;-69
2021/01/30 08:24:25;;;;;;;9.07;4.95;;;;;;;7.41;56.11;100147.50;5052002;28;20041;-69
2021/01/30 08:27:10;;;;;;;6.30;4.15;;;;;;;7.66;55.29;100152.41;5050266;28;20040;-68
2021/01/30 08:29:43;;;;;;;9.05;5.30;;;;;;;7.85;56.50;100158.06;5051510;28;20036;-69
2021/01/30 08:32:23;;;;;;;8.68;4.90;;;;;;;7.69;54.67;100157.34;5051184;28;20075;-69
2021/01/30 08:34:50;;;;;;;8.05;5.03;;;;;;;7.95;53.37;100137.22;5051388;28;20033;-70
2021/01/30 08:37:16;;;;;;;6.25;4.07;;;;;;;7.79;55.91;100153.53;5050645;28;20060;-69
2021/01/30 08:40:00;;;;;;;7.85;4.45;;;;;;;7.92;52.94;100156.25;5051356;28;20493;-70
2021/01/30 08:42:29;;;;;;;7.20;4.43;;;;;;;8.06;55.00;100167.00;5050833;28;20476;-70
2021/01/30 08:45:09;;;;;;;7.28;4.45;;;;;;;7.78;52.08;100173.19;5051650;28;20050;-69
2021/01/30 08:47:54;;;;;;;8.63;5.03;;;;;;;8.08;52.32;100168.47;5050517;28;20049;-70
2021/01/30 08:50:26;;;;;;;7.70;4.20;;;;;;;7.62;53.90;100159.13;5049609;28;20099;-69
2021/01/30 08:53:10;;;;;;;9.05;4.70;;;;;;;7.32;57.76;100154.78;5051274;28;20170;-69
2021/01/30 08:55:45;;;;;;;8.50;5.13;;;;;;;7.64;56.60;100146.44;5051175;28;20120;-70
2021/01/30 08:58:32;;;;;;;7.75;4.40;;;;;;;7.85;55.85;100148.25;5050926;28;20037;-68
2021/01/30 09:01:05;;;;;;;8.27;4.22;;;;;;;8.07;54.04;100150.81;5053679;28;20036;-70
2021/01/30 09:04:02;;;;;;;9.15;4.70;;;;;;;8.02;53.16;100150.59;5050626;28;20049;-68
2021/01/30 09:06:39;;;;;;;8.95;4.45;;;;;;;7.95;54.53;100153.22;5041933;28;20053;-69
2021/01/30 09:09:24;;;;;;;11.38;5.35;;;;;;;7.74;55.38;100156.75;5051584;28;20047;-70
2021/01/30 09:12:02;;;;;;;9.60;5.15;;;;;;;7.48;56.38;100163.53;5051438;28;20334;-69
2021/01/30 09:14:28;;;;;;;9.57;5.32;;;;;;;7.78;54.64;100160.69;5049548;28;20037;-70
2021/01/30 09:16:56;;;;;;;8.47;5.17;;;;;;;7.76;54.49;100138.75;5050988;28;20036;-69
2021/01/30 09:19:31;;;;;;;8.68;4.78;;;;;;;7.91;54.42;100153.81;5052741;28;20029;-69
2021/01/30 09:22:05;;;;;;;7.50;4.93;;;;;;;8.28;53.73;100149.94;5060171;28;20045;-68
2021/01/30 09:24:53;;;;;;;10.68;5.38;;;;;;;8.26;51.61;100137.81;5041103;28;20048;-68
2021/01/30 09:27:26;;;;;;;9.00;4.65;;;;;;;8.32;53.07;100126.41;5059918;28;20037;-68
2021/01/30 09:29:54;;;;;;;10.00;5.00;;;;;;;8.64;52.08;100132.06;5058931;28;20503;-69
2021/01/30 09:32:41;;;;;;;8.98;5.32;;;;;;;8.90;50.03;100127.84;5060294;28;20424;-69
2021/01/30 09:35:22;;;;;;;7.65;4.57;;;;;;;9.00;49.98;100135.44;5061460;28;20033;-68
2021/01/30 09:37:48;;;;;;;9.05;5.13;;;;;;;9.13;48.69;100138.16;5060018;28;20489;-68
2021/01/30 09:40:28;;;;;;;11.95;5.25;;;;;;;9.26;47.19;100137.34;5063241;28;20032;-61
2021/01/30 09:43:07;;;;;;;11.02;5.50;;;;;;;9.33;47.21;100140.00;5064069;28;20044;-67
2021/01/30 09:45:34;;;;;;;8.30;4.78;;;;;;;9.52;46.48;100118.84;5046846;28;20036;-68
2021/01/30 09:48:07;;;;;;;7.32;4.55;;;;;;;9.28;47.00;100129.97;5064325;28;20037;-68
2021/01/30 09:50:40;;;;;;;9.63;5.28;;;;;;;9.11;48.27;100139.38;5062543;28;20152;-68
2021/01/30 09:53:12;;;;;;;9.23;4.97;;;;;;;9.08;48.19;100135.25;5063714;28;20040;-70
2021/01/30 09:55:38;;;;;;;9.95;5.40;;;;;;;9.29;47.98;100139.59;5062852;28;20503;-69
2021/01/30 09:58:20;;;;;;;8.10;4.80;;;;;;;9.23;47.99;100132.41;5064137;28;20111;-69
2021/01/30 10:00:46;;;;;;;7.10;4.45;;;;;;;8.89;48.86;100139.53;5065348;28;20052;-69
2021/01/30 10:03:33;;;;;;;10.88;5.20;;;;;;;9.15;48.32;100136.09;5063958;28;20029;-68
2021/01/30 10:06:10;;;;;;;10.00;5.30;;;;;;;8.64;49.20;100117.91;5064470;28;20429;-68
2021/01/30 10:08:36;;;;;;;9.32;5.30;;;;;;;8.46;50.63;100130.75;5063905;28;20227;-69
2021/01/30 10:11:01;;;;;;;9.25;5.00;;;;;;;8.46;50.52;100133.41;5065400;28;20348;-69
2021/01/30 10:13:27;;;;;;;10.03;5.40;;;;;;;8.51;50.23;100129.34;5064637;28;20468;-70
2021/01/30 10:15:55;;;;;;;7.97;5.15;;;;;;;8.75;49.55;100128.81;5062294;28;20366;-69
2021/01/30 10:18:22;;;;;;;8.77;5.00;;;;;;;8.78;49.11;100134.78;5063331;28;20059;-68
2021/01/30 10:20:51;;;;;;;8.68;5.13;;;;;;;8.74;51.27;100127.16;5063599;28;20041;-69
2021/01/30 10:23:32;;;;;;;9.10;5.15;;;;;;;8.60;48.38;100123.66;5049068;28;20094;-70
2021/01/30 10:26:16;;;;;;;9.13;5.22;;;;;;;8.67;50.05;100133.53;5062759;28;20086;-69
2021/01/30 10:28:43;;;;;;;8.82;5.47;;;;;;;8.93;49.78;100127.44;5061755;28;20040;-67
2021/01/30 10:31:10;;;;;;;8.60;5.30;;;;;;;9.50;47.97;100127.09;5061323;28;20033;-68
2021/01/30 10:33:40;;;;;;;11.68;5.75;;;;;;;9.31;47.96;100129.53;5062452;28;20038;-68
2021/01/30 10:36:06;;;;;;;9.30;5.82;;;;;;;8.92;48.00;100115.13;5061261;28;20043;-69
2021/01/30 10:38:33;;;;;;;9.30;5.18;;;;;;;9.28;47.59;100121.13;5058814;28;20435;-67
2021/01/30 10:41:01;;;;;;;8.43;5.15;;;;;;;9.08;48.28;100135.25;5063058;28;20041;-69
2021/01/30 10:43:36;;;;;;;10.18;5.30;;;;;;;9.08;48.94;100121.91;5062243;28;20082;-70
2021/01/30 10:46:06;;;;;;;9.55;5.97;;;;;;;9.60;47.76;100121.34;5061603;28;20033;-68
2021/01/30 10:48:35;;;;;;;11.65;5.82;;;;;;;9.54;48.24;100114.13;5059180;28;20037;-68
2021/01/30 10:51:19;;;;;;;10.00;5.35;;;;;;;9.69;46.60;100113.94;5062491;28;20028;-68
2021/01/30 10:53:46;;;;;;;9.07;5.18;;;;;;;9.25;47.85;100119.69;5061003;28;20130;-69
2021/01/30 10:56:20;;;;;;;8.52;5.47;;;;;;;9.52;46.80;100122.38;5060786;28;21664;-68
2021/01/30 10:58:48;;;;;;;8.52;5.40;;;;;;;9.28;46.91;100110.44;5061739;28;20473;-68
2021/01/30 11:01:19;;;;;;;9.43;5.47;;;;;;;9.22;48.33;100108.59;5060455;28;20036;-68
2021/01/30 11:03:58;;;;;;;9.32;5.18;;;;;;;9.20;49.65;100108.78;5060197;28;20044;-69
2021/01/30 11:06:35;;;;;;;9.32;5.47;;;;;;;9.63;46.65;100106.72;5060865;28;20497;-68
2021/01/30 11:09:21;;;;;;;10.15;5.70;;;;;;;9.45;47.11;100113.50;5061307;28;20032;-68
2021/01/30 11:11:50;;;;;;;7.78;5.20;;;;;;;9.50;47.51;100091.56;5062648;28;20060;-69
2021/01/30 11:14:21;;;;;;;8.80;5.28;;;;;;;9.57;46.25;100103.88;5061760;28;20045;-68
2021/01/30 11:16:47;;;;;;;9.95;5.30;;;;;;;9.63;46.54;100098.72;5060213;28;20037;-69
2021/01/30 11:19:20;;;;;;;7.93;4.70;;;;;;;9.55;46.41;100097.91;5063568;28;20044;-68
2021/01/30 11:21:48;;;;;;;9.20;5.85;;;;;;;9.84;47.76;100090.47;5060759;28;20278;-69
2021/01/30 11:24:29;;;;;;;6.85;4.63;;;;;;;10.00;45.44;100088.38;5072864;28;20037;-69
2021/01/30 11:26:55;;;;;;;8.48;5.18;;;;;;;9.68;46.63;100097.09;5046449;28;20429;-67
2021/01/30 11:29:43;;;;;;;7.77;4.63;;;;;;;9.52;47.02;100087.66;5067505;28;20111;-69
2021/01/30 11:32:27;;;;;;;8.52;4.63;;;;;;;9.28;46.90;100081.94;5070958;28;20033;-64
2021/01/30 11:34:58;;;;;;;7.25;4.70;;;;;;;9.53;47.82;100083.97;5072238;28;20032;-68
2021/01/30 11:37:26;;;;;;;9.63;5.20;;;;;;;9.94;46.83;100084.69;5067926;28;20036;-68
2021/01/30 11:39:52;;;;;;;8.02;4.40;;;;;;;10.10;45.19;100071.91;5061917;28;20052;-68
2021/01/30 11:42:17;;;;;;;9.98;4.90;;;;;;;9.37;47.36;100076.38;5059834;28;20051;-69
2021/01/30 11:44:43;;;;;;;7.33;4.47;;;;;;;9.56;46.34;100072.03;5051777;28;20037;-70
2021/01/30 11:47:08;;;;;;;9.83;5.07;;;;;;;9.59;47.01;100066.31;5051860;28;20045;-59
2021/01/30 11:49:34;;;;;;;7.17;4.40;;;;;;;9.81;45.96;100066.06;5051336;28;20154;-70
2021/01/30 11:51:59;;;;;;;8.23;4.77;;;;;;;9.95;45.26;100061.50;5052078;28;20515;-69
2021/01/30 11:54:25;;;;;;;9.67;4.80;;;;;;;10.40;46.04;100060.69;5050565;28;20533;-61
2021/01/30 11:56:50;;;;;;;9.00;5.43;;;;;;;10.32;45.85;100059.06;5050154;28;20043;-67